sensor_id;sensor_type;location;lat;lon;timestamp;pressure;altitude;pressure_sealevel;temperature;humidity
47983;BME280;33751;50.816;-1.214;2023-04-01T00:01:04;99947.92;;;23.21;100.00
47983;BME280;33751;50.816;-1.214;2023-04-01T00:03:32;99950.46;;;23.28;100.00
47983;BME280;33751;50.816;-1.214;2023-04-01T00:06:00;99951.56;;;22.97;100.00
47983;BME280;33751;50.816;-1.214;2023-04-01T00:08:27;99954.07;;;23.08;100.00
47983;BME280;33751;50.816;-1.214;2023-04-01T00:10:54;99951.65;;;23.12;100.00
47983;BME280;33751;50.816;-1.214;2023-04-01T00:13:22;99961.34;;;23.08;100.00
47983;BME280;33751;50.816;-1.214;2023-04-01T00:15:48;99959.07;;;23.11;100.00
47983;BME280;33751;50.816;-1.214;2023-04-01T00:18:15;99962.51;;;23.04;100.00
47983;BME280;33751;50.816;-1.214;2023-04-01T00:20:44;99962.36;;;23.05;100.00
47983;BME280;33751;50.816;-1.214;2023-04-01T00:23:12;99965.03;;;23.03;100.00
47983;BME280;33751;50.816;-1.214;2023-04-01T00:25:39;99967.69;;;22.98;100.00
47983;BME280;33751;50.816;-1.214;2023-04-01T00:28:06;99973.53;;;23.00;100.00
47983;BME280;33751;50.816;-1.214;2023-04-01T00:30:33;99977.43;;;22.82;100.00
47983;BME280;33751;50.816;-1.214;2023-04-01T00:32:59;99977.70;;;22.96;100.00
47983;BME280;33751;50.816;-1.214;2023-04-01T00:35:26;99982.68;;;23.03;100.00
47983;BME280;33751;50.816;-1.214;2023-04-01T00:37:53;99982.42;;;23.07;100.00
47983;BME280;33751;50.816;-1.214;2023-04-01T00:40:27;99985.04;;;22.91;100.00
47983;BME280;33751;50.816;-1.214;2023-04-01T00:42:54;99988.97;;;22.95;100.00
47983;BME280;33751;50.816;-1.214;2023-04-01T00:45:27;99989.59;;;23.03;100.00
47983;BME280;33751;50.816;-1.214;2023-04-01T00:47:55;99989.97;;;22.62;100.00
47983;BME280;33751;50.816;-1.214;2023-04-01T00:50:24;99987.53;;;22.96;100.00
47983;BME280;33751;50.816;-1.214;2023-04-01T00:52:53;99990.52;;;23.13;100.00
47983;BME280;33751;50.816;-1.214;2023-04-01T00:55:21;99987.52;;;23.24;100.00
47983;BME280;33751;50.816;-1.214;2023-04-01T00:57:51;99993.08;;;22.81;100.00
47983;BME280;33751;50.816;-1.214;2023-04-01T01:00:20;99992.99;;;22.93;100.00
47983;BME280;33751;50.816;-1.214;2023-04-01T01:02:47;99998.37;;;22.83;100.00
47983;BME280;33751;50.816;-1.214;2023-04-01T01:05:20;99995.07;;;22.91;100.00
47983;BME280;33751;50.816;-1.214;2023-04-01T01:07:58;99998.09;;;22.81;100.00
47983;BME280;33751;50.816;-1.214;2023-04-01T01:10:30;100000.47;;;23.00;100.00
47983;BME280;33751;50.816;-1.214;2023-04-01T01:13:04;100004.67;;;22.69;100.00
47983;BME280;33751;50.816;-1.214;2023-04-01T01:15:41;100005.53;;;22.91;100.00
47983;BME280;33751;50.816;-1.214;2023-04-01T01:18:18;100002.73;;;23.08;100.00
47983;BME280;33751;50.816;-1.214;2023-04-01T01:21:30;100005.20;;;23.32;100.00
47983;BME280;33751;50.816;-1.214;2023-04-01T01:24:21;100003.30;;;22.83;100.00
47983;BME280;33751;50.816;-1.214;2023-04-01T01:26:58;100010.27;;;22.63;100.00
47983;BME280;33751;50.816;-1.214;2023-04-01T01:29:53;100013.66;;;22.69;100.00
47983;BME280;33751;50.816;-1.214;2023-04-01T01:32:38;100015.87;;;22.55;100.00
47983;BME280;33751;50.816;-1.214;2023-04-01T01:35:17;100014.65;;;22.81;100.00
47983;BME280;33751;50.816;-1.214;2023-04-01T01:37:49;100020.33;;;22.88;100.00
47983;BME280;33751;50.816;-1.214;2023-04-01T01:40:19;100022.53;;;23.12;100.00
47983;BME280;33751;50.816;-1.214;2023-04-01T01:42:50;100024.11;;;22.66;100.00
47983;BME280;33751;50.816;-1.214;2023-04-01T01:45:21;100029.94;;;22.72;100.00
47983;BME280;33751;50.816;-1.214;2023-04-01T01:47:51;100031.51;;;23.09;100.00
47983;BME280;33751;50.816;-1.214;2023-04-01T01:50:19;100036.62;;;22.65;100.00
47983;BME280;33751;50.816;-1.214;2023-04-01T01:52:47;100039.03;;;22.62;100.00
47983;BME280;33751;50.816;-1.214;2023-04-01T01:55:32;100038.73;;;23.03;100.00
47983;BME280;33751;50.816;-1.214;2023-04-01T01:58:04;100041.90;;;22.84;100.00
47983;BME280;33751;50.816;-1.214;2023-04-01T02:00:33;100046.05;;;23.02;100.00
47983;BME280;33751;50.816;-1.214;2023-04-01T02:03:00;100044.56;;;22.69;100.00
47983;BME280;33751;50.816;-1.214;2023-04-01T02:05:29;100049.44;;;22.74;100.00
47983;BME280;33751;50.816;-1.214;2023-04-01T02:08:01;100050.69;;;22.47;100.00
47983;BME280;33751;50.816;-1.214;2023-04-01T02:10:32;100054.58;;;22.61;100.00
47983;BME280;33751;50.816;-1.214;2023-04-01T02:13:05;100055.74;;;22.59;100.00
47983;BME280;33751;50.816;-1.214;2023-04-01T02:15:40;100055.46;;;22.97;100.00
47983;BME280;33751;50.816;-1.214;2023-04-01T02:18:08;100059.21;;;22.66;100.00
47983;BME280;33751;50.816;-1.214;2023-04-01T02:20:36;100058.47;;;22.63;100.00
47983;BME280;33751;50.816;-1.214;2023-04-01T02:23:04;100056.21;;;22.72;100.00
47983;BME280;33751;50.816;-1.214;2023-04-01T02:25:34;100063.73;;;22.32;100.00
47983;BME280;33751;50.816;-1.214;2023-04-01T02:28:04;100061.17;;;22.87;100.00
47983;BME280;33751;50.816;-1.214;2023-04-01T02:30:33;100064.97;;;22.77;100.00
47983;BME280;33751;50.816;-1.214;2023-04-01T02:33:01;100060.65;;;22.45;100.00
47983;BME280;33751;50.816;-1.214;2023-04-01T02:35:29;100063.67;;;22.52;100.00
47983;BME280;33751;50.816;-1.214;2023-04-01T02:37:56;100063.60;;;22.56;100.00
47983;BME280;33751;50.816;-1.214;2023-04-01T02:40:24;100063.98;;;22.78;100.00
47983;BME280;33751;50.816;-1.214;2023-04-01T02:42:51;100062.40;;;22.28;100.00
47983;BME280;33751;50.816;-1.214;2023-04-01T02:45:18;100065.43;;;22.58;100.00
47983;BME280;33751;50.816;-1.214;2023-04-01T02:47:45;100068.66;;;22.51;100.00
47983;BME280;33751;50.816;-1.214;2023-04-01T02:50:11;100073.53;;;22.72;100.00
47983;BME280;33751;50.816;-1.214;2023-04-01T02:52:38;100072.59;;;22.65;100.00
47983;BME280;33751;50.816;-1.214;2023-04-01T02:55:06;100068.78;;;23.02;100.00
47983;BME280;33751;50.816;-1.214;2023-04-01T02:57:33;100074.51;;;22.65;100.00
47983;BME280;33751;50.816;-1.214;2023-04-01T02:59:59;100075.59;;;22.59;100.00
47983;BME280;33751;50.816;-1.214;2023-04-01T03:02:26;100074.33;;;22.25;100.00
47983;BME280;33751;50.816;-1.214;2023-04-01T03:04:53;100075.32;;;22.55;100.00
47983;BME280;33751;50.816;-1.214;2023-04-01T03:07:20;100077.43;;;22.77;100.00
47983;BME280;33751;50.816;-1.214;2023-04-01T03:09:46;100076.03;;;22.39;100.00
47983;BME280;33751;50.816;-1.214;2023-04-01T03:12:13;100084.01;;;22.28;100.00
47983;BME280;33751;50.816;-1.214;2023-04-01T03:14:39;100088.54;;;22.39;100.00
47983;BME280;33751;50.816;-1.214;2023-04-01T03:17:06;100091.63;;;22.44;100.00
47983;BME280;33751;50.816;-1.214;2023-04-01T03:19:32;100091.04;;;22.51;100.00
47983;BME280;33751;50.816;-1.214;2023-04-01T03:21:59;100093.22;;;22.25;100.00
47983;BME280;33751;50.816;-1.214;2023-04-01T03:24:25;100091.04;;;22.24;100.00
47983;BME280;33751;50.816;-1.214;2023-04-01T03:26:52;100091.78;;;22.40;100.00
47983;BME280;33751;50.816;-1.214;2023-04-01T03:29:18;100093.32;;;22.54;100.00
47983;BME280;33751;50.816;-1.214;2023-04-01T03:31:45;100092.33;;;22.26;100.00
47983;BME280;33751;50.816;-1.214;2023-04-01T03:34:12;100095.44;;;22.36;100.00
47983;BME280;33751;50.816;-1.214;2023-04-01T03:36:39;100095.02;;;21.99;100.00
47983;BME280;33751;50.816;-1.214;2023-04-01T03:39:06;100099.62;;;22.10;100.00
47983;BME280;33751;50.816;-1.214;2023-04-01T03:41:35;100096.99;;;22.09;100.00
47983;BME280;33751;50.816;-1.214;2023-04-01T03:44:03;100096.79;;;22.30;100.00
47983;BME280;33751;50.816;-1.214;2023-04-01T03:46:29;100099.14;;;22.14;100.00
47983;BME280;33751;50.816;-1.214;2023-04-01T03:48:57;100101.98;;;22.05;100.00
47983;BME280;33751;50.816;-1.214;2023-04-01T03:51:24;100105.75;;;22.60;100.00
47983;BME280;33751;50.816;-1.214;2023-04-01T03:53:51;100104.92;;;22.49;100.00
47983;BME280;33751;50.816;-1.214;2023-04-01T03:56:18;100103.40;;;22.59;100.00
47983;BME280;33751;50.816;-1.214;2023-04-01T03:58:45;100106.34;;;22.46;100.00
47983;BME280;33751;50.816;-1.214;2023-04-01T04:01:14;100106.82;;;22.13;100.00
47983;BME280;33751;50.816;-1.214;2023-04-01T04:03:40;100110.55;;;22.07;100.00
47983;BME280;33751;50.816;-1.214;2023-04-01T04:06:11;100110.71;;;22.43;100.00
47983;BME280;33751;50.816;-1.214;2023-04-01T04:08:38;100118.50;;;22.39;100.00
47983;BME280;33751;50.816;-1.214;2023-04-01T04:11:05;100122.19;;;22.15;100.00
47983;BME280;33751;50.816;-1.214;2023-04-01T04:13:32;100123.07;;;22.49;100.00
47983;BME280;33751;50.816;-1.214;2023-04-01T04:15:59;100127.62;;;22.40;100.00
47983;BME280;33751;50.816;-1.214;2023-04-01T04:18:25;100126.81;;;22.41;100.00
47983;BME280;33751;50.816;-1.214;2023-04-01T04:20:52;100132.31;;;22.32;100.00
47983;BME280;33751;50.816;-1.214;2023-04-01T04:23:19;100132.31;;;22.35;100.00
47983;BME280;33751;50.816;-1.214;2023-04-01T04:25:54;100133.39;;;22.00;100.00
47983;BME280;33751;50.816;-1.214;2023-04-01T04:28:21;100134.78;;;22.33;100.00
47983;BME280;33751;50.816;-1.214;2023-04-01T04:30:48;100136.14;;;22.10;100.00
47983;BME280;33751;50.816;-1.214;2023-04-01T04:33:16;100141.28;;;22.32;100.00
47983;BME280;33751;50.816;-1.214;2023-04-01T04:35:43;100144.64;;;22.02;100.00
47983;BME280;33751;50.816;-1.214;2023-04-01T04:38:10;100143.66;;;21.90;100.00
47983;BME280;33751;50.816;-1.214;2023-04-01T04:40:38;100149.23;;;22.08;100.00
47983;BME280;33751;50.816;-1.214;2023-04-01T04:43:05;100148.85;;;22.22;100.00
47983;BME280;33751;50.816;-1.214;2023-04-01T04:45:32;100145.73;;;21.77;100.00
47983;BME280;33751;50.816;-1.214;2023-04-01T04:47:59;100151.59;;;22.12;100.00
47983;BME280;33751;50.816;-1.214;2023-04-01T04:50:25;100148.67;;;22.39;100.00
47983;BME280;33751;50.816;-1.214;2023-04-01T04:52:52;100150.09;;;21.87;100.00
47983;BME280;33751;50.816;-1.214;2023-04-01T04:55:19;100153.01;;;22.11;100.00
47983;BME280;33751;50.816;-1.214;2023-04-01T04:57:46;100155.79;;;22.22;100.00
47983;BME280;33751;50.816;-1.214;2023-04-01T05:00:13;100156.64;;;22.10;100.00
47983;BME280;33751;50.816;-1.214;2023-04-01T05:02:40;100160.40;;;21.73;100.00
47983;BME280;33751;50.816;-1.214;2023-04-01T05:05:07;100162.08;;;22.40;100.00
47983;BME280;33751;50.816;-1.214;2023-04-01T05:07:35;100165.48;;;22.07;100.00
47983;BME280;33751;50.816;-1.214;2023-04-01T05:10:01;100170.59;;;22.37;100.00
47983;BME280;33751;50.816;-1.214;2023-04-01T05:12:28;100172.07;;;22.12;100.00
47983;BME280;33751;50.816;-1.214;2023-04-01T05:14:55;100175.34;;;22.03;100.00
47983;BME280;33751;50.816;-1.214;2023-04-01T05:17:22;100178.47;;;22.31;100.00
47983;BME280;33751;50.816;-1.214;2023-04-01T05:19:49;100181.10;;;22.14;100.00
47983;BME280;33751;50.816;-1.214;2023-04-01T05:22:15;100185.53;;;22.31;100.00
47983;BME280;33751;50.816;-1.214;2023-04-01T05:24:42;100185.37;;;22.05;100.00
47983;BME280;33751;50.816;-1.214;2023-04-01T05:27:08;100185.41;;;22.13;100.00
47983;BME280;33751;50.816;-1.214;2023-04-01T05:29:35;100193.11;;;22.35;100.00
47983;BME280;33751;50.816;-1.214;2023-04-01T05:32:01;100196.16;;;21.95;100.00
47983;BME280;33751;50.816;-1.214;2023-04-01T05:34:28;100194.70;;;22.40;100.00
47983;BME280;33751;50.816;-1.214;2023-04-01T05:36:54;100194.64;;;22.35;100.00
47983;BME280;33751;50.816;-1.214;2023-04-01T05:39:21;100200.70;;;21.96;100.00
47983;BME280;33751;50.816;-1.214;2023-04-01T05:41:47;100201.38;;;21.96;100.00
47983;BME280;33751;50.816;-1.214;2023-04-01T05:44:14;100208.96;;;21.81;100.00
47983;BME280;33751;50.816;-1.214;2023-04-01T05:46:40;100207.41;;;21.83;100.00
47983;BME280;33751;50.816;-1.214;2023-04-01T05:49:08;100209.00;;;21.92;100.00
47983;BME280;33751;50.816;-1.214;2023-04-01T05:51:35;100215.62;;;22.11;100.00
47983;BME280;33751;50.816;-1.214;2023-04-01T05:54:01;100219.77;;;22.06;100.00
47983;BME280;33751;50.816;-1.214;2023-04-01T05:56:29;100220.42;;;21.97;100.00
47983;BME280;33751;50.816;-1.214;2023-04-01T05:58:56;100224.77;;;22.36;100.00
47983;BME280;33751;50.816;-1.214;2023-04-01T06:01:23;100225.91;;;22.12;100.00
47983;BME280;33751;50.816;-1.214;2023-04-01T06:03:50;100226.57;;;22.36;100.00
47983;BME280;33751;50.816;-1.214;2023-04-01T06:06:23;100229.62;;;22.51;100.00
47983;BME280;33751;50.816;-1.214;2023-04-01T06:08:51;100229.99;;;22.58;100.00
47983;BME280;33751;50.816;-1.214;2023-04-01T06:11:26;100232.00;;;22.83;100.00
47983;BME280;33751;50.816;-1.214;2023-04-01T06:14:07;100232.44;;;23.23;100.00
47983;BME280;33751;50.816;-1.214;2023-04-01T06:16:44;100236.16;;;22.79;100.00
47983;BME280;33751;50.816;-1.214;2023-04-01T06:19:27;100235.62;;;23.32;100.00
47983;BME280;33751;50.816;-1.214;2023-04-01T06:22:13;100237.35;;;22.96;100.00
47983;BME280;33751;50.816;-1.214;2023-04-01T06:24:55;100239.94;;;23.04;100.00
47983;BME280;33751;50.816;-1.214;2023-04-01T06:27:38;100235.18;;;23.06;100.00
47983;BME280;33751;50.816;-1.214;2023-04-01T06:30:24;100241.46;;;23.34;100.00
47983;BME280;33751;50.816;-1.214;2023-04-01T06:33:10;100243.35;;;23.01;100.00
47983;BME280;33751;50.816;-1.214;2023-04-01T06:35:51;100245.09;;;22.78;100.00
47983;BME280;33751;50.816;-1.214;2023-04-01T06:38:46;100247.07;;;23.09;100.00
47983;BME280;33751;50.816;-1.214;2023-04-01T06:41:26;100247.52;;;23.22;100.00
47983;BME280;33751;50.816;-1.214;2023-04-01T06:44:08;100251.26;;;23.16;100.00
47983;BME280;33751;50.816;-1.214;2023-04-01T06:46:45;100253.13;;;23.40;100.00
47983;BME280;33751;50.816;-1.214;2023-04-01T06:49:39;100259.73;;;23.10;100.00
47983;BME280;33751;50.816;-1.214;2023-04-01T06:52:15;100261.55;;;22.97;100.00
47983;BME280;33751;50.816;-1.214;2023-04-01T06:54:49;100262.29;;;22.89;100.00
47983;BME280;33751;50.816;-1.214;2023-04-01T06:57:23;100259.39;;;23.28;100.00
47983;BME280;33751;50.816;-1.214;2023-04-01T06:59:57;100265.90;;;22.96;100.00
47983;BME280;33751;50.816;-1.214;2023-04-01T07:02:32;100268.63;;;23.26;100.00
47983;BME280;33751;50.816;-1.214;2023-04-01T07:05:04;100269.70;;;23.20;100.00
47983;BME280;33751;50.816;-1.214;2023-04-01T07:07:35;100276.84;;;23.14;100.00
47983;BME280;33751;50.816;-1.214;2023-04-01T07:10:09;100282.86;;;23.11;100.00
47983;BME280;33751;50.816;-1.214;2023-04-01T07:12:44;100280.82;;;23.44;100.00
47983;BME280;33751;50.816;-1.214;2023-04-01T07:15:18;100283.79;;;23.45;100.00
47983;BME280;33751;50.816;-1.214;2023-04-01T07:17:48;100282.37;;;23.53;100.00
47983;BME280;33751;50.816;-1.214;2023-04-01T07:20:22;100286.86;;;23.76;100.00
47983;BME280;33751;50.816;-1.214;2023-04-01T07:22:54;100284.46;;;23.74;100.00
47983;BME280;33751;50.816;-1.214;2023-04-01T07:25:24;100289.05;;;23.53;100.00
47983;BME280;33751;50.816;-1.214;2023-04-01T07:27:53;100291.30;;;23.79;100.00
47983;BME280;33751;50.816;-1.214;2023-04-01T07:30:24;100294.63;;;23.79;100.00
47983;BME280;33751;50.816;-1.214;2023-04-01T07:33:00;100302.70;;;23.64;100.00
47983;BME280;33751;50.816;-1.214;2023-04-01T07:35:35;100302.10;;;23.82;100.00
47983;BME280;33751;50.816;-1.214;2023-04-01T07:38:15;100304.57;;;23.07;100.00
47983;BME280;33751;50.816;-1.214;2023-04-01T07:40:51;100301.75;;;23.66;100.00
47983;BME280;33751;50.816;-1.214;2023-04-01T07:43:34;100306.23;;;23.68;100.00
47983;BME280;33751;50.816;-1.214;2023-04-01T07:46:11;100307.97;;;23.56;100.00
47983;BME280;33751;50.816;-1.214;2023-04-01T07:48:45;100308.47;;;23.31;100.00
47983;BME280;33751;50.816;-1.214;2023-04-01T07:51:18;100315.29;;;23.45;100.00
47983;BME280;33751;50.816;-1.214;2023-04-01T07:53:51;100319.76;;;23.71;100.00
47983;BME280;33751;50.816;-1.214;2023-04-01T07:56:28;100325.31;;;23.32;100.00
47983;BME280;33751;50.816;-1.214;2023-04-01T07:59:03;100327.95;;;23.29;100.00
47983;BME280;33751;50.816;-1.214;2023-04-01T08:01:41;100330.05;;;23.57;100.00
47983;BME280;33751;50.816;-1.214;2023-04-01T08:04:19;100337.14;;;23.30;100.00
47983;BME280;33751;50.816;-1.214;2023-04-01T08:06:54;100338.09;;;23.17;100.00
47983;BME280;33751;50.816;-1.214;2023-04-01T08:09:31;100344.46;;;23.43;100.00
47983;BME280;33751;50.816;-1.214;2023-04-01T08:12:12;100347.89;;;23.38;100.00
47983;BME280;33751;50.816;-1.214;2023-04-01T08:14:50;100349.36;;;23.44;100.00
47983;BME280;33751;50.816;-1.214;2023-04-01T08:17:26;100349.24;;;22.95;100.00
47983;BME280;33751;50.816;-1.214;2023-04-01T08:20:08;100352.22;;;23.02;100.00
47983;BME280;33751;50.816;-1.214;2023-04-01T08:22:41;100358.61;;;23.24;100.00
47983;BME280;33751;50.816;-1.214;2023-04-01T08:25:16;100361.13;;;22.85;100.00
47983;BME280;33751;50.816;-1.214;2023-04-01T08:27:46;100365.42;;;23.23;100.00
47983;BME280;33751;50.816;-1.214;2023-04-01T08:30:18;100368.07;;;23.22;100.00
47983;BME280;33751;50.816;-1.214;2023-04-01T08:32:49;100370.31;;;23.06;100.00
47983;BME280;33751;50.816;-1.214;2023-04-01T08:35:26;100374.10;;;23.38;100.00
47983;BME280;33751;50.816;-1.214;2023-04-01T08:37:57;100377.69;;;23.31;100.00
47983;BME280;33751;50.816;-1.214;2023-04-01T08:40:55;100381.08;;;23.30;100.00
47983;BME280;33751;50.816;-1.214;2023-04-01T08:43:38;100380.76;;;23.40;100.00
47983;BME280;33751;50.816;-1.214;2023-04-01T08:46:25;100389.25;;;23.24;100.00
47983;BME280;33751;50.816;-1.214;2023-04-01T08:49:06;100391.42;;;23.00;100.00
47983;BME280;33751;50.816;-1.214;2023-04-01T08:51:53;100398.97;;;23.08;100.00
47983;BME280;33751;50.816;-1.214;2023-04-01T08:54:36;100402.60;;;23.41;100.00
47983;BME280;33751;50.816;-1.214;2023-04-01T08:57:14;100406.23;;;23.05;100.00
47983;BME280;33751;50.816;-1.214;2023-04-01T08:59:57;100406.91;;;22.76;100.00
47983;BME280;33751;50.816;-1.214;2023-04-01T09:02:48;100404.80;;;23.23;100.00
47983;BME280;33751;50.816;-1.214;2023-04-01T09:05:31;100404.19;;;23.16;100.00
47983;BME280;33751;50.816;-1.214;2023-04-01T09:08:10;100401.82;;;23.51;100.00
47983;BME280;33751;50.816;-1.214;2023-04-01T09:11:27;100403.64;;;24.11;100.00
47983;BME280;33751;50.816;-1.214;2023-04-01T09:14:19;100405.95;;;23.37;100.00
47983;BME280;33751;50.816;-1.214;2023-04-01T09:17:17;100410.74;;;23.16;100.00
47983;BME280;33751;50.816;-1.214;2023-04-01T09:20:02;100410.64;;;23.46;100.00
47983;BME280;33751;50.816;-1.214;2023-04-01T09:22:42;100415.98;;;23.41;100.00
47983;BME280;33751;50.816;-1.214;2023-04-01T09:25:22;100418.01;;;23.45;100.00
47983;BME280;33751;50.816;-1.214;2023-04-01T09:27:56;100417.57;;;23.73;100.00
47983;BME280;33751;50.816;-1.214;2023-04-01T09:30:33;100420.40;;;23.41;100.00
47983;BME280;33751;50.816;-1.214;2023-04-01T09:33:15;100422.40;;;23.69;100.00
47983;BME280;33751;50.816;-1.214;2023-04-01T09:35:47;100424.71;;;23.57;100.00
47983;BME280;33751;50.816;-1.214;2023-04-01T09:38:21;100424.75;;;23.75;100.00
47983;BME280;33751;50.816;-1.214;2023-04-01T09:40:56;100428.32;;;23.28;100.00
47983;BME280;33751;50.816;-1.214;2023-04-01T09:43:27;100426.04;;;23.42;100.00
47983;BME280;33751;50.816;-1.214;2023-04-01T09:46:08;100428.43;;;23.48;100.00
47983;BME280;33751;50.816;-1.214;2023-04-01T09:48:50;100428.97;;;23.82;100.00
47983;BME280;33751;50.816;-1.214;2023-04-01T09:51:27;100431.86;;;23.78;100.00
47983;BME280;33751;50.816;-1.214;2023-04-01T09:54:12;100434.01;;;23.44;100.00
47983;BME280;33751;50.816;-1.214;2023-04-01T09:57:27;100439.35;;;23.97;100.00
47983;BME280;33751;50.816;-1.214;2023-04-01T10:00:31;100441.66;;;23.70;100.00
47983;BME280;33751;50.816;-1.214;2023-04-01T10:04:24;100441.42;;;24.15;100.00
47983;BME280;33751;50.816;-1.214;2023-04-01T10:07:11;100444.65;;;23.63;100.00
47983;BME280;33751;50.816;-1.214;2023-04-01T10:10:32;100446.96;;;24.39;100.00
47983;BME280;33751;50.816;-1.214;2023-04-01T10:13:20;100447.91;;;23.88;100.00
47983;BME280;33751;50.816;-1.214;2023-04-01T10:16:06;100451.78;;;23.78;100.00
47983;BME280;33751;50.816;-1.214;2023-04-01T10:19:55;100452.03;;;24.07;100.00
47983;BME280;33751;50.816;-1.214;2023-04-01T10:22:37;100457.31;;;23.74;100.00
47983;BME280;33751;50.816;-1.214;2023-04-01T10:25:23;100459.69;;;23.83;100.00
47983;BME280;33751;50.816;-1.214;2023-04-01T10:28:10;100464.67;;;24.10;100.00
47983;BME280;33751;50.816;-1.214;2023-04-01T10:31:02;100467.86;;;24.40;100.00
47983;BME280;33751;50.816;-1.214;2023-04-01T10:34:34;100473.81;;;25.01;100.00
47983;BME280;33751;50.816;-1.214;2023-04-01T10:37:20;100476.85;;;24.46;100.00
47983;BME280;33751;50.816;-1.214;2023-04-01T10:40:07;100479.24;;;24.64;100.00
47983;BME280;33751;50.816;-1.214;2023-04-01T10:42:59;100482.63;;;24.60;100.00
47983;BME280;33751;50.816;-1.214;2023-04-01T10:45:49;100487.20;;;24.62;100.00
47983;BME280;33751;50.816;-1.214;2023-04-01T10:48:43;100491.20;;;24.51;100.00
47983;BME280;33751;50.816;-1.214;2023-04-01T10:51:25;100494.86;;;24.49;100.00
47983;BME280;33751;50.816;-1.214;2023-04-01T10:54:49;100497.49;;;24.88;100.00
47983;BME280;33751;50.816;-1.214;2023-04-01T10:57:40;100499.31;;;24.29;100.00
47983;BME280;33751;50.816;-1.214;2023-04-01T11:00:32;100501.85;;;23.91;100.00
47983;BME280;33751;50.816;-1.214;2023-04-01T11:04:48;100505.20;;;24.33;100.00
47983;BME280;33751;50.816;-1.214;2023-04-01T11:07:55;100505.99;;;23.85;100.00
47983;BME280;33751;50.816;-1.214;2023-04-01T11:10:57;100510.61;;;23.84;100.00
47983;BME280;33751;50.816;-1.214;2023-04-01T11:13:51;100510.72;;;23.88;100.00
47983;BME280;33751;50.816;-1.214;2023-04-01T11:16:43;100513.26;;;23.93;100.00
47983;BME280;33751;50.816;-1.214;2023-04-01T11:22:29;100519.48;;;24.11;100.00
47983;BME280;33751;50.816;-1.214;2023-04-01T11:25:17;100519.34;;;23.86;100.00
47983;BME280;33751;50.816;-1.214;2023-04-01T11:27:56;100520.79;;;23.80;100.00
47983;BME280;33751;50.816;-1.214;2023-04-01T11:30:41;100524.17;;;24.17;100.00
47983;BME280;33751;50.816;-1.214;2023-04-01T11:33:15;100525.59;;;23.84;100.00
47983;BME280;33751;50.816;-1.214;2023-04-01T11:36:03;100524.45;;;23.88;100.00
47983;BME280;33751;50.816;-1.214;2023-04-01T11:38:45;100529.50;;;23.80;100.00
47983;BME280;33751;50.816;-1.214;2023-04-01T11:41:26;100531.22;;;24.02;100.00
47983;BME280;33751;50.816;-1.214;2023-04-01T11:44:11;100535.72;;;23.68;100.00
47983;BME280;33751;50.816;-1.214;2023-04-01T11:46:51;100537.93;;;24.30;100.00
47983;BME280;33751;50.816;-1.214;2023-04-01T11:49:29;100543.61;;;24.67;100.00
47983;BME280;33751;50.816;-1.214;2023-04-01T11:52:08;100548.64;;;24.25;100.00
47983;BME280;33751;50.816;-1.214;2023-04-01T11:54:53;100554.26;;;24.81;100.00
47983;BME280;33751;50.816;-1.214;2023-04-01T11:57:40;100558.17;;;24.75;100.00
47983;BME280;33751;50.816;-1.214;2023-04-01T12:00:27;100562.95;;;24.67;100.00
47983;BME280;33751;50.816;-1.214;2023-04-01T12:03:14;100568.19;;;24.58;100.00
47983;BME280;33751;50.816;-1.214;2023-04-01T12:05:46;100570.73;;;24.48;100.00
47983;BME280;33751;50.816;-1.214;2023-04-01T12:08:29;100575.95;;;24.29;100.00
47983;BME280;33751;50.816;-1.214;2023-04-01T12:11:03;100577.57;;;24.20;100.00
47983;BME280;33751;50.816;-1.214;2023-04-01T12:13:40;100580.25;;;24.58;100.00
47983;BME280;33751;50.816;-1.214;2023-04-01T12:16:20;100587.79;;;24.04;100.00
47983;BME280;33751;50.816;-1.214;2023-04-01T12:18:53;100592.26;;;24.19;100.00
47983;BME280;33751;50.816;-1.214;2023-04-01T12:21:28;100594.00;;;24.17;100.00
47983;BME280;33751;50.816;-1.214;2023-04-01T12:24:45;100598.28;;;24.54;100.00
47983;BME280;33751;50.816;-1.214;2023-04-01T12:27:23;100600.38;;;24.26;100.00
47983;BME280;33751;50.816;-1.214;2023-04-01T12:30:06;100604.40;;;24.50;100.00
47983;BME280;33751;50.816;-1.214;2023-04-01T12:32:41;100613.75;;;24.63;100.00
47983;BME280;33751;50.816;-1.214;2023-04-01T12:35:20;100614.48;;;24.58;100.00
47983;BME280;33751;50.816;-1.214;2023-04-01T12:37:55;100621.30;;;24.82;100.00
47983;BME280;33751;50.816;-1.214;2023-04-01T12:40:39;100622.49;;;24.95;100.00
47983;BME280;33751;50.816;-1.214;2023-04-01T12:43:25;100628.82;;;24.96;100.00
47983;BME280;33751;50.816;-1.214;2023-04-01T12:46:05;100633.66;;;24.72;100.00
47983;BME280;33751;50.816;-1.214;2023-04-01T12:48:58;100637.83;;;25.21;100.00
47983;BME280;33751;50.816;-1.214;2023-04-01T12:51:37;100643.43;;;24.98;100.00
47983;BME280;33751;50.816;-1.214;2023-04-01T12:54:22;100645.25;;;24.92;100.00
47983;BME280;33751;50.816;-1.214;2023-04-01T12:57:03;100648.18;;;25.15;100.00
47983;BME280;33751;50.816;-1.214;2023-04-01T13:00:03;100656.91;;;25.09;100.00
47983;BME280;33751;50.816;-1.214;2023-04-01T13:02:51;100660.45;;;24.65;100.00
47983;BME280;33751;50.816;-1.214;2023-04-01T13:05:37;100661.18;;;25.11;100.00
47983;BME280;33751;50.816;-1.214;2023-04-01T13:08:18;100664.20;;;24.83;100.00
47983;BME280;33751;50.816;-1.214;2023-04-01T13:11:02;100668.88;;;24.75;100.00
47983;BME280;33751;50.816;-1.214;2023-04-01T13:13:53;100668.53;;;24.51;100.00
47983;BME280;33751;50.816;-1.214;2023-04-01T13:16:27;100671.36;;;24.75;100.00
47983;BME280;33751;50.816;-1.214;2023-04-01T13:18:59;100678.33;;;24.37;100.00
47983;BME280;33751;50.816;-1.214;2023-04-01T13:21:35;100682.71;;;24.99;100.00